Weather at Phoenix Sky Harbor International Airport

Public forecast

Using degrees Fahrenheit for public forecast. Weather courtesy of forecast.io.

Current aviation weather report (METAR) for Phoenix Sky Harbor International Airport

2022/11/30 08:51 (retrieved 54 minutes ago)

KPHX 300851Z 00000KT 10SM CLR 10/03 A3000 RMK AO2 SLP152 T01000033 51001

Aviation forecast (TAF) for Phoenix Sky Harbor International Airport

2022/11/30 09:48 Ammendment (retrieved 0 seconds ago)

TAF AMD KPHX 300845Z 3009/0112 10004KT P6SM SCT200 FM302300 26004KT P6SM FEW200 FM010600 10004KT P6SM FEW250